createdAt,value
2023-01-11T00:00:25.911Z,6.50
2023-01-11T00:02:56.854Z,6.44
2023-01-11T00:05:24.034Z,6.41
2023-01-11T00:07:50.794Z,6.46
2023-01-11T00:10:17.800Z,6.45
2023-01-11T00:12:44.760Z,6.46
2023-01-11T00:15:11.910Z,6.46
2023-01-11T00:17:38.480Z,6.36
2023-01-11T00:20:06.047Z,6.52
2023-01-11T00:22:33.114Z,6.52
2023-01-11T00:24:59.705Z,6.44
2023-01-11T00:27:26.336Z,6.52
2023-01-11T00:29:53.224Z,6.53
2023-01-11T00:32:19.900Z,6.52
2023-01-11T00:34:46.516Z,6.56
2023-01-11T00:37:13.104Z,6.56
2023-01-11T00:39:39.772Z,6.57
2023-01-11T00:42:25.139Z,6.51
2023-01-11T00:45:10.643Z,6.65
2023-01-11T00:47:55.934Z,6.54
2023-01-11T00:50:23.163Z,6.61
2023-01-11T00:52:49.784Z,6.55
2023-01-11T00:55:16.419Z,6.70
2023-01-11T00:57:43.120Z,6.72
2023-01-11T01:00:10.691Z,6.66
2023-01-11T01:02:37.621Z,6.72
2023-01-11T01:05:04.619Z,6.74
2023-01-11T01:07:31.300Z,6.74
2023-01-11T01:09:58.099Z,6.67
2023-01-11T01:12:43.362Z,6.76
2023-01-11T01:15:10.579Z,6.70
2023-01-11T01:17:37.133Z,6.75
2023-01-11T01:20:04.366Z,6.79
2023-01-11T01:22:31.010Z,6.85
2023-01-11T01:24:57.569Z,6.78
2023-01-11T01:27:24.262Z,6.87
2023-01-11T01:29:50.887Z,6.84
2023-01-11T01:32:17.499Z,6.85
2023-01-11T01:34:44.566Z,6.84
2023-01-11T01:37:11.453Z,6.88
2023-01-11T01:39:38.225Z,6.91
2023-01-11T01:42:06.247Z,6.82
2023-01-11T01:45:17.781Z,6.85
2023-01-11T01:47:49.117Z,6.85
2023-01-11T01:50:23.934Z,6.94
2023-01-11T01:52:52.564Z,6.92
2023-01-11T01:55:25.867Z,6.85
2023-01-11T01:57:52.785Z,6.90
2023-01-11T02:00:20.004Z,6.82
2023-01-11T02:02:48.147Z,6.94
2023-01-11T02:05:16.013Z,6.96
2023-01-11T02:07:44.561Z,6.96
2023-01-11T02:10:20.532Z,7.00
2023-01-11T02:12:51.711Z,6.92
2023-01-11T02:15:20.224Z,6.99
2023-01-11T02:17:47.018Z,6.90
2023-01-11T02:20:27.332Z,7.02
2023-01-11T02:23:33.233Z,7.06
2023-01-11T02:26:09.285Z,7.00
2023-01-11T02:28:49.301Z,7.02
2023-01-11T02:31:24.937Z,7.05
2023-01-11T02:34:38.067Z,7.05
2023-01-11T02:37:27.663Z,7.07
2023-01-11T02:40:17.494Z,7.10
2023-01-11T02:43:21.208Z,7.14
2023-01-11T02:46:09.808Z,7.12
2023-01-11T02:48:50.047Z,7.14
2023-01-11T02:51:32.851Z,7.17
2023-01-11T02:54:04.576Z,7.13
2023-01-11T02:56:34.058Z,7.11
2023-01-11T02:59:01.577Z,7.08
2023-01-11T03:01:28.220Z,7.08
2023-01-11T03:03:54.930Z,7.16
2023-01-11T03:06:25.015Z,7.16
2023-01-11T03:09:19.051Z,7.16
2023-01-11T03:12:31.751Z,7.27
2023-01-11T03:15:53.990Z,7.28
2023-01-11T03:18:28.550Z,7.26
2023-01-11T03:21:12.526Z,7.29
2023-01-11T03:24:16.208Z,7.35
2023-01-11T03:27:17.925Z,7.33
2023-01-11T03:30:43.339Z,7.35
2023-01-11T03:33:21.663Z,7.34
2023-01-11T03:36:01.654Z,7.35
2023-01-11T03:38:32.958Z,7.42
2023-01-11T03:41:05.488Z,7.25
2023-01-11T03:43:34.662Z,7.30
2023-01-11T03:46:11.363Z,7.34
2023-01-11T03:48:42.205Z,7.34
2023-01-11T03:51:13.001Z,7.30
2023-01-11T03:53:40.422Z,7.39
2023-01-11T03:56:10.841Z,7.42
2023-01-11T03:58:37.752Z,7.39
2023-01-11T04:01:04.666Z,7.37
2023-01-11T04:03:31.714Z,7.31
2023-01-11T04:06:02.508Z,7.40
2023-01-11T04:08:29.411Z,7.47
2023-01-11T04:10:56.044Z,7.50
2023-01-11T04:13:22.763Z,7.43
2023-01-11T04:15:49.358Z,7.49
2023-01-11T04:18:15.993Z,7.49
2023-01-11T04:20:42.638Z,7.59
2023-01-11T04:23:12.332Z,7.51
2023-01-11T04:25:39.148Z,7.53
2023-01-11T04:28:06.069Z,7.58
2023-01-11T04:30:32.785Z,7.52
2023-01-11T04:33:00.188Z,7.51
2023-01-11T04:35:27.330Z,7.45
2023-01-11T04:37:55.596Z,7.47
2023-01-11T04:40:22.431Z,7.50
2023-01-11T04:42:49.276Z,7.50
2023-01-11T04:45:16.605Z,7.55
2023-01-11T04:47:43.353Z,7.55
2023-01-11T04:50:11.967Z,7.57
2023-01-11T04:52:41.000Z,7.58
2023-01-11T04:55:08.281Z,7.64
2023-01-11T04:57:34.942Z,7.52
2023-01-11T05:00:01.489Z,7.60
2023-01-11T05:02:28.192Z,7.58
2023-01-11T05:04:54.867Z,7.67
2023-01-11T05:07:21.494Z,7.64
2023-01-11T05:09:48.086Z,7.68
2023-01-11T05:12:14.717Z,7.72
2023-01-11T05:14:41.370Z,7.69
2023-01-11T05:17:08.056Z,7.72
2023-01-11T05:19:34.729Z,7.77
2023-01-11T05:22:01.398Z,7.82
2023-01-11T05:24:28.065Z,7.89
2023-01-11T05:26:54.648Z,7.79
2023-01-11T05:29:22.021Z,7.82
2023-01-11T05:31:49.406Z,7.83
2023-01-11T05:34:18.308Z,7.92
2023-01-11T05:36:45.254Z,7.75
2023-01-11T05:39:12.933Z,7.84
2023-01-11T05:41:39.615Z,7.83
2023-01-11T05:44:26.775Z,7.83
2023-01-11T05:46:53.398Z,7.83
2023-01-11T05:49:20.239Z,7.79
2023-01-11T05:51:47.298Z,7.73
2023-01-11T05:54:14.858Z,7.90
2023-01-11T05:56:45.461Z,7.79
2023-01-11T05:59:12.287Z,7.83
2023-01-11T06:01:39.127Z,7.85
2023-01-11T06:04:05.921Z,7.83
2023-01-11T06:06:33.825Z,7.87
2023-01-11T06:09:00.416Z,7.88
2023-01-11T06:11:27.365Z,7.91
2023-01-11T06:13:54.250Z,7.89
2023-01-11T06:16:22.385Z,7.91
2023-01-11T06:18:51.175Z,7.92
2023-01-11T06:21:18.356Z,7.99
2023-01-11T06:23:47.335Z,8.02
2023-01-11T06:26:15.635Z,7.99
2023-01-11T06:28:43.145Z,8.00
2023-01-11T06:31:10.084Z,8.09
2023-01-11T06:33:37.675Z,8.09
2023-01-11T06:36:06.623Z,8.20
2023-01-11T06:38:33.598Z,8.14
2023-01-11T06:41:01.760Z,8.19
2023-01-11T06:43:29.426Z,8.25
2023-01-11T06:45:56.591Z,8.19
2023-01-11T06:48:23.704Z,8.23
2023-01-11T06:50:55.650Z,8.25
2023-01-11T06:53:23.028Z,8.24
2023-01-11T06:55:53.455Z,8.37
2023-01-11T06:58:22.603Z,8.33
2023-01-11T07:00:49.732Z,8.41
2023-01-11T07:03:16.510Z,8.46
2023-01-11T07:05:44.110Z,8.47
2023-01-11T07:08:11.285Z,8.46
2023-01-11T07:10:37.955Z,8.40
2023-01-11T07:13:04.773Z,8.42
2023-01-11T07:15:31.713Z,8.45
2023-01-11T07:17:59.718Z,8.44
2023-01-11T07:20:26.985Z,8.43
2023-01-11T07:22:57.764Z,8.35
2023-01-11T07:25:24.792Z,8.39
2023-01-11T07:27:56.932Z,8.38
2023-01-11T07:30:24.246Z,8.42
2023-01-11T07:32:51.117Z,8.41
2023-01-11T07:35:17.773Z,8.52
2023-01-11T07:37:45.712Z,8.43
2023-01-11T07:40:13.034Z,8.38
2023-01-11T07:42:58.952Z,8.43
2023-01-11T07:45:34.373Z,8.42
2023-01-11T07:48:10.464Z,8.38
2023-01-11T07:50:38.863Z,8.44
2023-01-11T07:53:06.021Z,8.37
2023-01-11T07:55:32.777Z,8.48
2023-01-11T07:57:59.407Z,8.46
2023-01-11T08:00:26.124Z,8.41
2023-01-11T08:02:53.531Z,8.59
2023-01-11T08:05:20.898Z,8.58
2023-01-11T08:07:47.893Z,8.49
2023-01-11T08:10:14.827Z,8.52
2023-01-11T08:13:06.826Z,8.60
2023-01-11T08:15:34.335Z,8.56
2023-01-11T08:18:01.184Z,8.54
2023-01-11T08:20:29.138Z,8.52
2023-01-11T08:22:56.344Z,8.54
2023-01-11T08:25:23.282Z,8.58
2023-01-11T08:27:50.055Z,8.56
2023-01-11T08:30:17.045Z,8.57
2023-01-11T08:32:43.820Z,8.64
2023-01-11T08:35:10.594Z,8.58
2023-01-11T08:37:37.204Z,8.55
2023-01-11T08:40:04.476Z,8.55
2023-01-11T08:42:31.183Z,8.38
2023-01-11T08:44:57.998Z,8.28
2023-01-11T08:47:25.024Z,8.30
2023-01-11T08:49:51.693Z,8.18
2023-01-11T08:52:18.635Z,8.24
2023-01-11T08:54:45.407Z,8.28
2023-01-11T08:57:12.140Z,8.10
2023-01-11T08:59:38.800Z,8.10
2023-01-11T09:02:06.647Z,8.12
2023-01-11T09:04:34.286Z,8.09
2023-01-11T09:07:01.985Z,8.09
2023-01-11T09:09:28.657Z,8.12
2023-01-11T09:11:56.882Z,8.06
2023-01-11T09:14:25.497Z,8.13
2023-01-11T09:16:53.345Z,8.13
2023-01-11T09:19:20.554Z,8.13
2023-01-11T09:21:47.490Z,8.20
2023-01-11T09:24:14.490Z,8.22
2023-01-11T09:26:43.572Z,8.21
2023-01-11T09:29:11.189Z,8.20
2023-01-11T09:31:38.057Z,8.26
2023-01-11T09:34:05.581Z,8.19
2023-01-11T09:36:33.495Z,8.13
2023-01-11T09:39:02.361Z,8.29
2023-01-11T09:41:38.060Z,8.26
2023-01-11T09:44:16.392Z,8.26
2023-01-11T09:46:46.450Z,8.29
2023-01-11T09:49:19.210Z,8.34
2023-01-11T09:51:46.685Z,8.39
2023-01-11T09:54:25.994Z,8.43
2023-01-11T09:57:31.098Z,8.52
2023-01-11T10:00:36.348Z,8.53
2023-01-11T10:03:03.642Z,8.59
2023-01-11T10:06:00.136Z,8.63
2023-01-11T10:18:34.381Z,8.79
2023-01-11T10:22:00.708Z,8.83
2023-01-11T10:24:37.398Z,8.85
2023-01-11T10:27:09.582Z,8.85
2023-01-11T10:30:08.629Z,8.92
2023-01-11T10:33:11.019Z,8.92
2023-01-11T10:36:06.052Z,9.00
2023-01-11T10:38:55.114Z,9.07
2023-01-11T10:41:37.921Z,9.04
2023-01-11T10:44:33.052Z,9.04
2023-01-11T10:47:00.204Z,9.04
2023-01-11T10:50:00.397Z,9.10
2023-01-11T10:53:01.128Z,9.17
2023-01-11T10:55:40.094Z,9.23
2023-01-11T10:58:34.361Z,9.22
2023-01-11T11:01:17.328Z,9.21
2023-01-11T11:03:54.194Z,9.21
2023-01-11T11:06:51.693Z,9.28
2023-01-11T11:09:43.407Z,9.27
2023-01-11T11:12:17.521Z,9.28
2023-01-11T11:14:52.800Z,9.26
2023-01-11T11:17:25.249Z,9.29
2023-01-11T11:19:52.563Z,9.35
2023-01-11T11:22:21.119Z,9.35
2023-01-11T11:24:58.063Z,9.37
2023-01-11T11:27:40.898Z,9.41
2023-01-11T11:30:11.613Z,9.51
2023-01-11T11:32:40.626Z,9.47
2023-01-11T11:35:10.647Z,9.48
2023-01-11T11:37:42.905Z,9.58
2023-01-11T11:40:34.949Z,9.53
2023-01-11T11:43:22.887Z,9.60
2023-01-11T11:45:55.306Z,9.57
2023-01-11T11:48:22.872Z,9.66
2023-01-11T11:50:50.370Z,9.64
2023-01-11T11:53:30.735Z,9.69
2023-01-11T11:55:57.494Z,9.70
2023-01-11T11:58:25.506Z,9.83
2023-01-11T12:00:53.078Z,9.80
2023-01-11T12:03:23.186Z,9.86
2023-01-11T12:05:58.391Z,9.81
2023-01-11T12:08:26.197Z,9.83
2023-01-11T12:10:57.748Z,9.81
2023-01-11T12:13:35.683Z,9.80
2023-01-11T12:16:04.915Z,9.83
2023-01-11T12:18:42.997Z,9.87
2023-01-11T12:21:32.802Z,10.00
2023-01-11T12:24:12.959Z,9.95
2023-01-11T12:26:47.471Z,9.92
2023-01-11T12:29:33.197Z,9.93
2023-01-11T12:32:51.300Z,9.95
2023-01-11T12:35:26.914Z,9.98
2023-01-11T12:38:14.162Z,9.93
2023-01-11T12:41:01.857Z,9.99
2023-01-11T12:44:05.959Z,10.04
2023-01-11T12:46:51.835Z,9.99
2023-01-11T12:49:47.778Z,10.01
2023-01-11T12:52:46.684Z,9.99
2023-01-11T12:55:22.628Z,10.01
2023-01-11T12:58:00.531Z,9.97
2023-01-11T13:00:36.692Z,9.95
2023-01-11T13:03:33.646Z,9.96
2023-01-11T13:06:13.314Z,10.06
2023-01-11T13:09:07.279Z,10.02
2023-01-11T13:11:43.707Z,9.97
2023-01-11T13:14:49.623Z,9.93
2023-01-11T13:17:26.350Z,9.92
2023-01-11T13:20:17.895Z,9.96
2023-01-11T13:22:53.868Z,9.94
2023-01-11T13:25:26.329Z,9.97
2023-01-11T13:27:55.053Z,10.00
2023-01-11T13:30:24.661Z,10.00
2023-01-11T13:33:00.976Z,9.97
2023-01-11T13:35:35.965Z,9.94
2023-01-11T13:38:34.923Z,9.96
2023-01-11T13:41:14.533Z,9.98
2023-01-11T13:43:55.781Z,9.97
2023-01-11T13:47:03.504Z,9.90
2023-01-11T13:50:09.185Z,9.98
2023-01-11T13:52:44.491Z,9.90
2023-01-11T13:55:32.735Z,9.91
2023-01-11T13:58:18.249Z,9.94
2023-01-11T14:01:11.004Z,9.88
2023-01-11T14:03:57.364Z,9.79
2023-01-11T14:06:59.655Z,9.73
2023-01-11T14:10:01.345Z,9.75
2023-01-11T14:16:40.048Z,9.84
2023-01-11T14:19:22.874Z,9.78
2023-01-11T14:22:16.583Z,9.84
2023-01-11T14:24:53.807Z,9.79
2023-01-11T14:28:15.664Z,9.88
2023-01-11T14:31:29.924Z,9.83
2023-01-11T14:34:10.113Z,9.85
2023-01-11T14:37:24.738Z,9.82
2023-01-11T14:39:55.506Z,9.86
2023-01-11T14:43:01.383Z,9.78
2023-01-11T14:45:47.387Z,9.72
2023-01-11T14:48:25.461Z,9.74
2023-01-11T14:51:25.933Z,9.74
2023-01-11T14:54:15.022Z,9.64
2023-01-11T14:56:51.145Z,9.59
2023-01-11T14:59:38.539Z,9.61
2023-01-11T15:02:14.329Z,9.70
2023-01-11T15:05:17.181Z,9.55
2023-01-11T15:07:44.072Z,9.52
2023-01-11T15:10:51.897Z,9.48
2023-01-11T15:13:35.349Z,9.41
2023-01-11T15:16:28.905Z,9.42
2023-01-11T15:18:55.807Z,9.40
2023-01-11T15:21:25.362Z,9.42
2023-01-11T15:23:57.911Z,9.30
2023-01-11T15:26:26.471Z,9.24
2023-01-11T15:28:55.175Z,9.21
2023-01-11T15:31:47.722Z,9.17
2023-01-11T15:34:40.879Z,9.08
2023-01-11T15:37:31.917Z,9.07
2023-01-11T15:40:29.450Z,8.99
2023-01-11T15:43:14.389Z,8.93
2023-01-11T15:46:32.201Z,9.09
2023-01-11T15:49:31.990Z,9.05
2023-01-11T15:52:26.266Z,9.04
2023-01-11T15:55:26.027Z,9.00
2023-01-11T15:58:11.859Z,8.95
2023-01-11T16:00:55.695Z,8.99
2023-01-11T16:03:36.481Z,9.10
2023-01-11T16:06:32.489Z,9.07
2023-01-11T16:09:21.013Z,9.04
2023-01-11T16:12:02.254Z,9.01
2023-01-11T16:15:11.994Z,8.99
2023-01-11T16:17:42.699Z,9.06
2023-01-11T16:20:28.214Z,8.94
2023-01-11T16:23:03.136Z,8.97
2023-01-11T16:25:32.063Z,8.93
2023-01-11T16:28:00.033Z,8.96
2023-01-11T16:30:28.318Z,9.06
2023-01-11T16:33:15.684Z,9.04
2023-01-11T16:35:42.301Z,9.01
2023-01-11T16:38:16.107Z,9.03
2023-01-11T16:40:46.584Z,8.97
2023-01-11T16:43:29.576Z,8.92
2023-01-11T16:45:56.767Z,8.81
2023-01-11T16:48:28.699Z,8.68
2023-01-11T16:51:16.728Z,8.81
2023-01-11T16:53:45.729Z,8.66
2023-01-11T16:56:18.790Z,8.66
2023-01-11T16:59:04.794Z,8.61
2023-01-11T17:01:49.548Z,8.65
2023-01-11T17:04:32.609Z,8.58
2023-01-11T17:07:25.159Z,8.53
2023-01-11T17:09:52.244Z,8.43
2023-01-11T17:12:25.317Z,8.41
2023-01-11T17:15:31.044Z,8.35
2023-01-11T17:18:03.111Z,8.39
2023-01-11T17:20:31.290Z,8.40
2023-01-11T17:22:58.277Z,8.30
2023-01-11T17:25:41.042Z,8.32
2023-01-11T17:28:17.015Z,8.26
2023-01-11T17:30:45.482Z,8.25
2023-01-11T17:33:26.696Z,8.30
2023-01-11T17:35:58.133Z,8.21
2023-01-11T17:38:26.622Z,8.08
2023-01-11T17:40:56.906Z,8.19
2023-01-11T17:43:44.259Z,8.15
2023-01-11T17:46:20.082Z,8.17
2023-01-11T17:48:57.499Z,8.08
2023-01-11T17:51:32.331Z,8.10
2023-01-11T17:53:59.556Z,8.08
2023-01-11T17:56:54.959Z,8.23
2023-01-11T17:59:30.023Z,8.12
2023-01-11T18:02:04.263Z,8.04
2023-01-11T18:04:31.709Z,8.07
2023-01-11T18:07:27.658Z,8.09
2023-01-11T18:10:01.544Z,7.99
2023-01-11T18:12:34.325Z,7.97
2023-01-11T18:15:04.343Z,7.95
2023-01-11T18:17:42.399Z,7.91
2023-01-11T18:20:36.448Z,7.80
2023-01-11T18:23:05.397Z,7.79
2023-01-11T18:25:36.439Z,7.73
2023-01-11T18:28:36.878Z,7.75
2023-01-11T18:31:03.640Z,7.68
2023-01-11T18:33:32.372Z,7.64
2023-01-11T18:36:01.956Z,7.63
2023-01-11T18:38:37.785Z,7.67
2023-01-11T18:41:25.614Z,7.66
2023-01-11T18:43:53.312Z,7.63
2023-01-11T18:46:20.304Z,7.59
2023-01-11T18:48:47.013Z,7.66
2023-01-11T18:51:19.328Z,7.67
2023-01-11T18:53:45.949Z,7.60
2023-01-11T18:56:14.552Z,7.59
2023-01-11T18:58:41.484Z,7.64
2023-01-11T19:01:09.007Z,7.65
2023-01-11T19:03:35.971Z,7.56
2023-01-11T19:06:02.587Z,7.51
2023-01-11T19:08:30.727Z,7.56
2023-01-11T19:10:58.216Z,7.61
2023-01-11T19:13:24.900Z,7.57
2023-01-11T19:15:51.612Z,7.56
2023-01-11T19:18:18.347Z,7.57
2023-01-11T19:20:45.160Z,7.54
2023-01-11T19:23:11.912Z,7.56
2023-01-11T19:25:38.532Z,7.49
2023-01-11T19:28:06.137Z,7.57
2023-01-11T19:30:32.781Z,7.56
2023-01-11T19:32:59.422Z,7.51
2023-01-11T19:35:26.172Z,7.58
2023-01-11T19:37:53.109Z,7.52
2023-01-11T19:40:21.874Z,7.53
2023-01-11T19:42:49.014Z,7.61
2023-01-11T19:45:15.669Z,7.63
2023-01-11T19:47:42.423Z,7.59
2023-01-11T19:50:09.891Z,7.51
2023-01-11T19:52:36.587Z,7.53
2023-01-11T19:55:03.573Z,7.49
2023-01-11T19:57:30.509Z,7.48
2023-01-11T19:59:57.122Z,7.41
2023-01-11T20:02:24.013Z,7.51
2023-01-11T20:04:51.135Z,7.47
2023-01-11T20:07:17.773Z,7.48
2023-01-11T20:09:44.522Z,7.45
2023-01-11T20:12:19.190Z,7.43
2023-01-11T20:14:46.480Z,7.41
2023-01-11T20:17:14.121Z,7.40
2023-01-11T20:19:41.571Z,7.43
2023-01-11T20:22:08.222Z,7.41
2023-01-11T20:24:34.853Z,7.41
2023-01-11T20:27:03.102Z,7.39
2023-01-11T20:29:36.761Z,7.40
2023-01-11T20:32:27.729Z,7.46
2023-01-11T20:34:50.168Z,7.43
2023-01-11T20:37:16.780Z,7.42
2023-01-11T20:39:43.643Z,7.45
2023-01-11T20:42:12.684Z,7.39
2023-01-11T20:44:39.400Z,7.34
2023-01-11T20:47:06.158Z,7.41
2023-01-11T20:49:32.780Z,7.46
2023-01-11T20:51:59.598Z,7.45
2023-01-11T20:54:26.397Z,7.52
2023-01-11T20:56:53.127Z,7.39
2023-01-11T20:59:20.668Z,7.43
2023-01-11T21:01:48.056Z,7.54
2023-01-11T21:04:15.153Z,7.47
2023-01-11T21:06:44.382Z,7.56
2023-01-11T21:09:14.474Z,7.50
2023-01-11T21:11:41.237Z,7.39
2023-01-11T21:14:12.299Z,7.46
2023-01-11T21:16:43.223Z,7.49
2023-01-11T21:19:14.540Z,7.42
2023-01-11T21:21:41.567Z,7.42
2023-01-11T21:24:10.760Z,7.32
2023-01-11T21:26:41.446Z,7.39
2023-01-11T21:29:08.661Z,7.33
2023-01-11T21:31:36.534Z,7.40
2023-01-11T21:34:03.749Z,7.36
2023-01-11T21:36:31.193Z,7.33
2023-01-11T21:38:58.765Z,7.28
2023-01-11T21:41:46.703Z,7.29
2023-01-11T21:44:14.351Z,7.23
2023-01-11T21:46:41.785Z,7.25
2023-01-11T21:49:09.267Z,7.22
2023-01-11T21:51:36.319Z,7.20
2023-01-11T21:54:07.556Z,7.24
2023-01-11T21:56:34.674Z,7.14
2023-01-11T21:59:01.487Z,7.10
2023-01-11T22:01:30.047Z,7.07
2023-01-11T22:03:57.068Z,7.11
2023-01-11T22:06:23.728Z,7.04
2023-01-11T22:08:50.483Z,6.96
2023-01-11T22:11:17.912Z,6.75
2023-01-11T22:13:45.028Z,6.77
2023-01-11T22:16:17.850Z,6.83
2023-01-11T22:18:45.532Z,6.94
2023-01-11T22:21:18.149Z,6.91
2023-01-11T22:23:46.011Z,6.95
2023-01-11T22:26:17.994Z,6.95
2023-01-11T22:29:04.393Z,6.99
2023-01-11T22:31:32.367Z,7.06
2023-01-11T22:33:59.706Z,7.18
2023-01-11T22:36:27.799Z,7.24
2023-01-11T22:38:54.887Z,7.20
2023-01-11T22:41:22.198Z,7.21
2023-01-11T22:43:49.777Z,7.21
2023-01-11T22:46:24.043Z,7.22
2023-01-11T22:48:51.621Z,7.16
2023-01-11T22:51:20.747Z,7.11
2023-01-11T22:53:48.897Z,7.24
2023-01-11T22:56:20.509Z,7.19
2023-01-11T22:58:47.997Z,7.17
2023-01-11T23:01:16.921Z,7.27
2023-01-11T23:03:43.993Z,7.23
2023-01-11T23:06:11.399Z,7.30
2023-01-11T23:08:43.022Z,7.31
2023-01-11T23:11:12.648Z,7.34
2023-01-11T23:13:55.378Z,7.35
2023-01-11T23:16:23.060Z,7.31
2023-01-11T23:18:49.853Z,7.40
2023-01-11T23:21:17.172Z,7.35
2023-01-11T23:23:44.153Z,7.44
2023-01-11T23:26:12.371Z,7.44
2023-01-11T23:28:39.842Z,7.36
2023-01-11T23:31:17.583Z,7.44
2023-01-11T23:33:55.411Z,7.45
2023-01-11T23:36:23.707Z,7.47
2023-01-11T23:38:51.005Z,7.44
2023-01-11T23:41:40.444Z,7.51
2023-01-11T23:44:12.275Z,7.41
2023-01-11T23:46:58.449Z,7.40
2023-01-11T23:49:25.306Z,7.36
2023-01-11T23:51:52.161Z,7.40
2023-01-11T23:54:18.829Z,7.48
2023-01-11T23:56:45.603Z,7.43
2023-01-11T23:59:12.336Z,7.43
